sensor_id;sensor_type;location;lat;lon;timestamp;temperature;humidity
39859;DHT22;25528;47.810;12.960;2022-07-23T00:01:33;26.40;62.80
39859;DHT22;25528;47.810;12.960;2022-07-23T00:04:00;26.40;62.80
39859;DHT22;25528;47.810;12.960;2022-07-23T00:06:25;26.40;62.80
39859;DHT22;25528;47.810;12.960;2022-07-23T00:08:52;26.40;62.80
39859;DHT22;25528;47.810;12.960;2022-07-23T00:11:18;26.40;62.80
39859;DHT22;25528;47.810;12.960;2022-07-23T00:13:44;26.40;62.80
39859;DHT22;25528;47.810;12.960;2022-07-23T00:16:10;26.40;62.70
39859;DHT22;25528;47.810;12.960;2022-07-23T00:18:36;26.40;62.80
39859;DHT22;25528;47.810;12.960;2022-07-23T00:21:01;26.40;62.80
39859;DHT22;25528;47.810;12.960;2022-07-23T00:23:27;26.40;62.80
39859;DHT22;25528;47.810;12.960;2022-07-23T00:25:54;26.40;62.90
39859;DHT22;25528;47.810;12.960;2022-07-23T00:28:20;26.30;62.80
39859;DHT22;25528;47.810;12.960;2022-07-23T00:30:46;26.30;62.80
39859;DHT22;25528;47.810;12.960;2022-07-23T00:33:12;26.30;62.80
39859;DHT22;25528;47.810;12.960;2022-07-23T00:35:38;26.30;62.80
39859;DHT22;25528;47.810;12.960;2022-07-23T00:38:07;26.30;62.90
39859;DHT22;25528;47.810;12.960;2022-07-23T00:40:35;26.30;62.90
39859;DHT22;25528;47.810;12.960;2022-07-23T00:43:00;26.30;62.80
39859;DHT22;25528;47.810;12.960;2022-07-23T00:45:26;26.30;62.90
39859;DHT22;25528;47.810;12.960;2022-07-23T00:47:52;26.30;62.90
39859;DHT22;25528;47.810;12.960;2022-07-23T00:50:18;26.30;62.80
39859;DHT22;25528;47.810;12.960;2022-07-23T00:52:44;26.30;62.80
39859;DHT22;25528;47.810;12.960;2022-07-23T00:55:10;26.30;62.90
39859;DHT22;25528;47.810;12.960;2022-07-23T00:57:37;26.30;62.80
39859;DHT22;25528;47.810;12.960;2022-07-23T01:00:05;26.30;62.80
39859;DHT22;25528;47.810;12.960;2022-07-23T01:02:32;26.30;62.90
39859;DHT22;25528;47.810;12.960;2022-07-23T01:04:57;26.30;62.90
39859;DHT22;25528;47.810;12.960;2022-07-23T01:07:23;26.20;62.90
39859;DHT22;25528;47.810;12.960;2022-07-23T01:09:51;26.20;62.90
39859;DHT22;25528;47.810;12.960;2022-07-23T01:12:17;26.20;62.90
39859;DHT22;25528;47.810;12.960;2022-07-23T01:14:42;26.20;62.80
39859;DHT22;25528;47.810;12.960;2022-07-23T01:17:08;26.20;62.80
39859;DHT22;25528;47.810;12.960;2022-07-23T01:19:34;26.20;62.80
39859;DHT22;25528;47.810;12.960;2022-07-23T01:22:02;26.20;62.80
39859;DHT22;25528;47.810;12.960;2022-07-23T01:24:28;26.20;62.70
39859;DHT22;25528;47.810;12.960;2022-07-23T01:26:53;26.20;62.70
39859;DHT22;25528;47.810;12.960;2022-07-23T01:29:19;26.20;62.80
39859;DHT22;25528;47.810;12.960;2022-07-23T01:31:46;26.20;62.70
39859;DHT22;25528;47.810;12.960;2022-07-23T01:34:12;26.20;62.70
39859;DHT22;25528;47.810;12.960;2022-07-23T01:36:38;26.20;62.70
39859;DHT22;25528;47.810;12.960;2022-07-23T01:39:05;26.20;62.70
39859;DHT22;25528;47.810;12.960;2022-07-23T01:41:31;26.20;62.60
39859;DHT22;25528;47.810;12.960;2022-07-23T01:43:57;26.20;62.60
39859;DHT22;25528;47.810;12.960;2022-07-23T01:46:22;26.20;62.60
39859;DHT22;25528;47.810;12.960;2022-07-23T01:48:48;26.20;62.60
39859;DHT22;25528;47.810;12.960;2022-07-23T01:51:14;26.20;62.70
39859;DHT22;25528;47.810;12.960;2022-07-23T01:53:40;26.20;62.60
39859;DHT22;25528;47.810;12.960;2022-07-23T01:56:06;26.20;62.60
39859;DHT22;25528;47.810;12.960;2022-07-23T01:58:32;26.20;62.60
39859;DHT22;25528;47.810;12.960;2022-07-23T02:00:57;26.20;62.60
39859;DHT22;25528;47.810;12.960;2022-07-23T02:03:23;26.20;62.60
39859;DHT22;25528;47.810;12.960;2022-07-23T02:05:49;26.10;62.60
39859;DHT22;25528;47.810;12.960;2022-07-23T02:08:15;26.10;62.60
39859;DHT22;25528;47.810;12.960;2022-07-23T02:10:41;26.10;62.60
39859;DHT22;25528;47.810;12.960;2022-07-23T02:13:06;26.10;62.60
39859;DHT22;25528;47.810;12.960;2022-07-23T02:15:32;26.10;62.60
39859;DHT22;25528;47.810;12.960;2022-07-23T02:17:58;26.10;62.60
39859;DHT22;25528;47.810;12.960;2022-07-23T02:20:24;26.10;62.70
39859;DHT22;25528;47.810;12.960;2022-07-23T02:22:50;26.10;62.60
39859;DHT22;25528;47.810;12.960;2022-07-23T02:25:15;26.10;62.70
39859;DHT22;25528;47.810;12.960;2022-07-23T02:27:41;26.10;62.60
39859;DHT22;25528;47.810;12.960;2022-07-23T02:30:07;26.10;62.60
39859;DHT22;25528;47.810;12.960;2022-07-23T02:32:34;26.00;62.50
39859;DHT22;25528;47.810;12.960;2022-07-23T02:35:00;26.10;62.60
39859;DHT22;25528;47.810;12.960;2022-07-23T02:37:26;26.10;62.60
39859;DHT22;25528;47.810;12.960;2022-07-23T02:39:51;26.10;62.60
39859;DHT22;25528;47.810;12.960;2022-07-23T02:42:17;26.10;62.60
39859;DHT22;25528;47.810;12.960;2022-07-23T02:44:43;26.10;62.60
39859;DHT22;25528;47.810;12.960;2022-07-23T02:47:08;26.10;62.60
39859;DHT22;25528;47.810;12.960;2022-07-23T02:49:34;26.10;62.60
39859;DHT22;25528;47.810;12.960;2022-07-23T02:52:00;26.00;62.50
39859;DHT22;25528;47.810;12.960;2022-07-23T02:54:26;26.00;62.50
39859;DHT22;25528;47.810;12.960;2022-07-23T02:56:52;26.00;62.60
39859;DHT22;25528;47.810;12.960;2022-07-23T02:59:18;26.00;62.50
39859;DHT22;25528;47.810;12.960;2022-07-23T03:01:44;26.00;62.60
39859;DHT22;25528;47.810;12.960;2022-07-23T03:04:10;26.00;62.60
39859;DHT22;25528;47.810;12.960;2022-07-23T03:06:36;26.10;62.70
39859;DHT22;25528;47.810;12.960;2022-07-23T03:09:03;26.00;62.60
39859;DHT22;25528;47.810;12.960;2022-07-23T03:11:29;26.00;62.60
39859;DHT22;25528;47.810;12.960;2022-07-23T03:13:54;26.00;62.60
39859;DHT22;25528;47.810;12.960;2022-07-23T03:16:20;26.00;62.60
39859;DHT22;25528;47.810;12.960;2022-07-23T03:18:46;26.00;62.60
39859;DHT22;25528;47.810;12.960;2022-07-23T03:21:11;26.00;62.60
39859;DHT22;25528;47.810;12.960;2022-07-23T03:23:37;26.00;62.60
39859;DHT22;25528;47.810;12.960;2022-07-23T03:26:03;26.00;62.60
39859;DHT22;25528;47.810;12.960;2022-07-23T03:28:28;26.00;62.60
39859;DHT22;25528;47.810;12.960;2022-07-23T03:30:54;26.00;62.60
39859;DHT22;25528;47.810;12.960;2022-07-23T03:33:21;26.00;62.60
39859;DHT22;25528;47.810;12.960;2022-07-23T03:35:47;26.00;62.50
39859;DHT22;25528;47.810;12.960;2022-07-23T03:38:13;26.00;62.70
39859;DHT22;25528;47.810;12.960;2022-07-23T03:40:39;26.00;62.50
39859;DHT22;25528;47.810;12.960;2022-07-23T03:43:04;26.00;62.50
39859;DHT22;25528;47.810;12.960;2022-07-23T03:45:30;25.90;62.40
39859;DHT22;25528;47.810;12.960;2022-07-23T03:47:56;26.00;62.50
39859;DHT22;25528;47.810;12.960;2022-07-23T03:50:22;25.90;62.40
39859;DHT22;25528;47.810;12.960;2022-07-23T03:52:47;26.00;62.50
39859;DHT22;25528;47.810;12.960;2022-07-23T03:55:13;26.00;62.50
39859;DHT22;25528;47.810;12.960;2022-07-23T03:57:39;26.00;62.50
39859;DHT22;25528;47.810;12.960;2022-07-23T04:00:06;25.90;62.30
39859;DHT22;25528;47.810;12.960;2022-07-23T04:02:34;26.00;62.40
39859;DHT22;25528;47.810;12.960;2022-07-23T04:05:00;25.90;62.30
39859;DHT22;25528;47.810;12.960;2022-07-23T04:07:26;25.90;62.30
39859;DHT22;25528;47.810;12.960;2022-07-23T04:09:52;25.90;62.30
39859;DHT22;25528;47.810;12.960;2022-07-23T04:12:17;25.90;62.30
39859;DHT22;25528;47.810;12.960;2022-07-23T04:14:44;25.90;62.30
39859;DHT22;25528;47.810;12.960;2022-07-23T04:17:09;25.90;62.30
39859;DHT22;25528;47.810;12.960;2022-07-23T04:19:35;25.90;62.30
39859;DHT22;25528;47.810;12.960;2022-07-23T04:22:05;25.90;62.30
39859;DHT22;25528;47.810;12.960;2022-07-23T04:24:31;25.90;62.30
39859;DHT22;25528;47.810;12.960;2022-07-23T04:26:57;25.90;62.30
39859;DHT22;25528;47.810;12.960;2022-07-23T04:29:23;25.90;62.30
39859;DHT22;25528;47.810;12.960;2022-07-23T04:31:49;25.90;62.30
39859;DHT22;25528;47.810;12.960;2022-07-23T04:34:14;25.90;62.30
39859;DHT22;25528;47.810;12.960;2022-07-23T04:36:40;25.90;62.30
39859;DHT22;25528;47.810;12.960;2022-07-23T04:39:06;25.90;62.30
39859;DHT22;25528;47.810;12.960;2022-07-23T04:41:32;25.90;62.30
39859;DHT22;25528;47.810;12.960;2022-07-23T04:43:57;25.90;62.30
39859;DHT22;25528;47.810;12.960;2022-07-23T04:46:23;25.90;62.30
39859;DHT22;25528;47.810;12.960;2022-07-23T04:48:49;25.90;62.30
39859;DHT22;25528;47.810;12.960;2022-07-23T04:51:14;25.90;62.30
39859;DHT22;25528;47.810;12.960;2022-07-23T04:53:40;25.80;62.20
39859;DHT22;25528;47.810;12.960;2022-07-23T04:56:06;25.80;62.20
39859;DHT22;25528;47.810;12.960;2022-07-23T04:58:32;25.80;62.30
39859;DHT22;25528;47.810;12.960;2022-07-23T05:00:57;25.80;62.30
39859;DHT22;25528;47.810;12.960;2022-07-23T05:03:23;25.80;61.90
39859;DHT22;25528;47.810;12.960;2022-07-23T05:05:49;25.80;62.00
39859;DHT22;25528;47.810;12.960;2022-07-23T05:08:15;25.80;61.90
39859;DHT22;25528;47.810;12.960;2022-07-23T05:10:41;25.80;61.90
39859;DHT22;25528;47.810;12.960;2022-07-23T05:13:06;25.80;61.50
39859;DHT22;25528;47.810;12.960;2022-07-23T05:15:32;25.80;61.10
39859;DHT22;25528;47.810;12.960;2022-07-23T05:17:58;25.80;61.20
39859;DHT22;25528;47.810;12.960;2022-07-23T05:20:23;25.80;61.30
39859;DHT22;25528;47.810;12.960;2022-07-23T05:22:49;25.80;62.00
39859;DHT22;25528;47.810;12.960;2022-07-23T05:25:15;25.80;61.60
39859;DHT22;25528;47.810;12.960;2022-07-23T05:27:40;25.80;63.20
39859;DHT22;25528;47.810;12.960;2022-07-23T05:30:06;25.90;62.80
39859;DHT22;25528;47.810;12.960;2022-07-23T05:32:32;25.90;62.40
39859;DHT22;25528;47.810;12.960;2022-07-23T05:34:58;26.00;63.00
39859;DHT22;25528;47.810;12.960;2022-07-23T05:37:24;26.00;62.30
39859;DHT22;25528;47.810;12.960;2022-07-23T05:39:50;26.00;62.20
39859;DHT22;25528;47.810;12.960;2022-07-23T05:42:16;26.00;62.60
39859;DHT22;25528;47.810;12.960;2022-07-23T05:44:42;26.00;62.20
39859;DHT22;25528;47.810;12.960;2022-07-23T05:47:08;26.00;61.50
39859;DHT22;25528;47.810;12.960;2022-07-23T05:49:34;26.00;61.80
39859;DHT22;25528;47.810;12.960;2022-07-23T05:52:05;25.90;62.20
39859;DHT22;25528;47.810;12.960;2022-07-23T05:54:33;25.90;61.60
39859;DHT22;25528;47.810;12.960;2022-07-23T05:56:59;25.90;61.00
39859;DHT22;25528;47.810;12.960;2022-07-23T05:59:25;25.90;61.30
39859;DHT22;25528;47.810;12.960;2022-07-23T06:01:50;25.90;61.20
39859;DHT22;25528;47.810;12.960;2022-07-23T06:04:16;25.90;61.40
39859;DHT22;25528;47.810;12.960;2022-07-23T06:06:42;25.90;61.40
39859;DHT22;25528;47.810;12.960;2022-07-23T06:09:08;25.90;61.30
39859;DHT22;25528;47.810;12.960;2022-07-23T06:11:33;25.90;61.20
39859;DHT22;25528;47.810;12.960;2022-07-23T06:13:59;25.90;61.50
39859;DHT22;25528;47.810;12.960;2022-07-23T06:16:24;25.90;61.20
39859;DHT22;25528;47.810;12.960;2022-07-23T06:18:50;25.90;61.60
39859;DHT22;25528;47.810;12.960;2022-07-23T06:21:16;25.90;62.30
39859;DHT22;25528;47.810;12.960;2022-07-23T06:23:41;25.90;62.80
39859;DHT22;25528;47.810;12.960;2022-07-23T06:26:07;26.00;63.10
39859;DHT22;25528;47.810;12.960;2022-07-23T06:28:32;25.90;61.90
39859;DHT22;25528;47.810;12.960;2022-07-23T06:30:58;25.90;61.90
39859;DHT22;25528;47.810;12.960;2022-07-23T06:33:24;25.90;61.70
39859;DHT22;25528;47.810;12.960;2022-07-23T06:35:49;25.80;61.50
39859;DHT22;25528;47.810;12.960;2022-07-23T06:38:15;25.80;61.50
39859;DHT22;25528;47.810;12.960;2022-07-23T06:40:41;25.80;61.40
39859;DHT22;25528;47.810;12.960;2022-07-23T06:43:06;25.80;61.60
39859;DHT22;25528;47.810;12.960;2022-07-23T06:45:32;25.80;61.70
39859;DHT22;25528;47.810;12.960;2022-07-23T06:47:58;25.80;61.80
39859;DHT22;25528;47.810;12.960;2022-07-23T06:50:23;25.80;61.80
39859;DHT22;25528;47.810;12.960;2022-07-23T06:52:49;25.80;61.80
39859;DHT22;25528;47.810;12.960;2022-07-23T06:55:14;25.80;61.80
39859;DHT22;25528;47.810;12.960;2022-07-23T06:57:40;25.80;61.90
39859;DHT22;25528;47.810;12.960;2022-07-23T07:00:06;25.80;61.80
39859;DHT22;25528;47.810;12.960;2022-07-23T07:02:32;25.80;61.90
39859;DHT22;25528;47.810;12.960;2022-07-23T07:04:58;25.80;61.90
39859;DHT22;25528;47.810;12.960;2022-07-23T07:07:23;25.80;61.90
39859;DHT22;25528;47.810;12.960;2022-07-23T07:09:49;25.80;61.90
39859;DHT22;25528;47.810;12.960;2022-07-23T07:12:15;25.80;61.90
39859;DHT22;25528;47.810;12.960;2022-07-23T07:14:40;25.80;61.90
39859;DHT22;25528;47.810;12.960;2022-07-23T07:17:06;25.80;61.90
39859;DHT22;25528;47.810;12.960;2022-07-23T07:19:32;25.80;61.90
39859;DHT22;25528;47.810;12.960;2022-07-23T07:21:58;25.80;61.90
39859;DHT22;25528;47.810;12.960;2022-07-23T07:24:23;25.80;61.90
39859;DHT22;25528;47.810;12.960;2022-07-23T07:26:49;25.80;61.90
39859;DHT22;25528;47.810;12.960;2022-07-23T07:29:15;25.80;61.90
39859;DHT22;25528;47.810;12.960;2022-07-23T07:31:40;25.80;61.90
39859;DHT22;25528;47.810;12.960;2022-07-23T07:34:06;25.80;61.90
39859;DHT22;25528;47.810;12.960;2022-07-23T07:36:32;25.80;62.00
39859;DHT22;25528;47.810;12.960;2022-07-23T07:38:58;25.80;61.90
39859;DHT22;25528;47.810;12.960;2022-07-23T07:41:23;25.80;61.90
39859;DHT22;25528;47.810;12.960;2022-07-23T07:43:51;25.80;61.90
39859;DHT22;25528;47.810;12.960;2022-07-23T07:46:17;25.70;61.90
39859;DHT22;25528;47.810;12.960;2022-07-23T07:48:43;25.70;61.90
39859;DHT22;25528;47.810;12.960;2022-07-23T07:51:08;25.70;61.90
39859;DHT22;25528;47.810;12.960;2022-07-23T07:53:34;25.80;62.00
39859;DHT22;25528;47.810;12.960;2022-07-23T07:56:00;25.70;61.90
39859;DHT22;25528;47.810;12.960;2022-07-23T07:58:25;25.70;63.00
39859;DHT22;25528;47.810;12.960;2022-07-23T08:00:51;25.80;62.40
39859;DHT22;25528;47.810;12.960;2022-07-23T08:03:17;25.80;63.00
39859;DHT22;25528;47.810;12.960;2022-07-23T08:05:42;25.80;63.40
39859;DHT22;25528;47.810;12.960;2022-07-23T08:08:08;25.90;63.80
39859;DHT22;25528;47.810;12.960;2022-07-23T08:10:35;25.90;63.80
39859;DHT22;25528;47.810;12.960;2022-07-23T08:13:01;25.90;62.20
39859;DHT22;25528;47.810;12.960;2022-07-23T08:15:28;25.90;62.20
39859;DHT22;25528;47.810;12.960;2022-07-23T08:17:55;25.90;62.10
39859;DHT22;25528;47.810;12.960;2022-07-23T08:20:22;25.90;62.00
39859;DHT22;25528;47.810;12.960;2022-07-23T08:22:51;25.90;62.10
39859;DHT22;25528;47.810;12.960;2022-07-23T08:25:23;25.80;62.10
39859;DHT22;25528;47.810;12.960;2022-07-23T08:27:50;25.80;61.80
39859;DHT22;25528;47.810;12.960;2022-07-23T08:30:16;25.80;62.00
39859;DHT22;25528;47.810;12.960;2022-07-23T08:32:59;25.80;62.10
39859;DHT22;25528;47.810;12.960;2022-07-23T08:37:58;25.80;62.70
39859;DHT22;25528;47.810;12.960;2022-07-23T08:40:26;25.90;62.30
39859;DHT22;25528;47.810;12.960;2022-07-23T08:42:52;25.90;62.00
39859;DHT22;25528;47.810;12.960;2022-07-23T08:45:20;25.90;61.60
39859;DHT22;25528;47.810;12.960;2022-07-23T08:47:49;25.80;61.50
39859;DHT22;25528;47.810;12.960;2022-07-23T08:50:14;25.80;61.30
39859;DHT22;25528;47.810;12.960;2022-07-23T08:52:40;25.80;61.70
39859;DHT22;25528;47.810;12.960;2022-07-23T08:55:07;25.80;61.70
39859;DHT22;25528;47.810;12.960;2022-07-23T08:57:33;25.80;61.80
39859;DHT22;25528;47.810;12.960;2022-07-23T08:59:59;25.80;61.90
39859;DHT22;25528;47.810;12.960;2022-07-23T09:02:25;25.80;61.70
39859;DHT22;25528;47.810;12.960;2022-07-23T09:04:51;25.80;61.80
39859;DHT22;25528;47.810;12.960;2022-07-23T09:07:16;25.80;61.80
39859;DHT22;25528;47.810;12.960;2022-07-23T09:09:42;25.80;61.80
39859;DHT22;25528;47.810;12.960;2022-07-23T09:12:09;25.80;61.70
39859;DHT22;25528;47.810;12.960;2022-07-23T09:14:40;25.80;61.70
39859;DHT22;25528;47.810;12.960;2022-07-23T09:17:13;25.80;61.70
39859;DHT22;25528;47.810;12.960;2022-07-23T09:19:41;25.80;61.60
39859;DHT22;25528;47.810;12.960;2022-07-23T09:22:20;25.80;61.60
39859;DHT22;25528;47.810;12.960;2022-07-23T09:25:14;25.80;61.50
39859;DHT22;25528;47.810;12.960;2022-07-23T09:27:59;25.80;61.40
39859;DHT22;25528;47.810;12.960;2022-07-23T09:30:29;25.80;61.80
39859;DHT22;25528;47.810;12.960;2022-07-23T09:33:12;25.80;62.30
39859;DHT22;25528;47.810;12.960;2022-07-23T09:35:51;25.80;62.40
39859;DHT22;25528;47.810;12.960;2022-07-23T09:38:19;25.80;62.50
39859;DHT22;25528;47.810;12.960;2022-07-23T09:40:46;25.90;62.60
39859;DHT22;25528;47.810;12.960;2022-07-23T09:43:13;25.90;62.40
39859;DHT22;25528;47.810;12.960;2022-07-23T09:45:50;25.90;62.80
39859;DHT22;25528;47.810;12.960;2022-07-23T09:48:17;25.90;63.00
39859;DHT22;25528;47.810;12.960;2022-07-23T09:50:43;25.90;62.20
39859;DHT22;25528;47.810;12.960;2022-07-23T09:53:25;26.00;63.30
39859;DHT22;25528;47.810;12.960;2022-07-23T09:55:53;26.00;63.20
39859;DHT22;25528;47.810;12.960;2022-07-23T09:58:21;26.00;62.90
39859;DHT22;25528;47.810;12.960;2022-07-23T10:00:48;26.00;63.40
39859;DHT22;25528;47.810;12.960;2022-07-23T10:03:15;26.10;63.20
39859;DHT22;25528;47.810;12.960;2022-07-23T10:05:43;26.20;63.60
39859;DHT22;25528;47.810;12.960;2022-07-23T10:08:11;26.20;63.20
39859;DHT22;25528;47.810;12.960;2022-07-23T10:10:40;26.20;63.10
39859;DHT22;25528;47.810;12.960;2022-07-23T10:13:07;26.20;63.30
39859;DHT22;25528;47.810;12.960;2022-07-23T10:15:41;26.10;63.10
39859;DHT22;25528;47.810;12.960;2022-07-23T10:18:09;26.10;62.70
39859;DHT22;25528;47.810;12.960;2022-07-23T10:20:35;26.10;63.10
39859;DHT22;25528;47.810;12.960;2022-07-23T10:23:28;26.10;63.50
39859;DHT22;25528;47.810;12.960;2022-07-23T10:32:02;26.10;63.80
39859;DHT22;25528;47.810;12.960;2022-07-23T10:37:39;26.10;63.80
39859;DHT22;25528;47.810;12.960;2022-07-23T10:40:20;26.10;64.30
39859;DHT22;25528;47.810;12.960;2022-07-23T10:42:49;26.10;64.20
39859;DHT22;25528;47.810;12.960;2022-07-23T10:45:25;26.10;64.30
39859;DHT22;25528;47.810;12.960;2022-07-23T10:47:51;26.10;64.50
39859;DHT22;25528;47.810;12.960;2022-07-23T10:50:27;26.10;64.30
39859;DHT22;25528;47.810;12.960;2022-07-23T10:53:18;26.10;64.10
39859;DHT22;25528;47.810;12.960;2022-07-23T10:55:51;26.10;64.10
39859;DHT22;25528;47.810;12.960;2022-07-23T10:58:28;26.10;63.90
39859;DHT22;25528;47.810;12.960;2022-07-23T11:01:38;26.10;63.80
39859;DHT22;25528;47.810;12.960;2022-07-23T11:04:05;26.10;63.50
39859;DHT22;25528;47.810;12.960;2022-07-23T11:15:12;26.10;64.10
39859;DHT22;25528;47.810;12.960;2022-07-23T11:22:38;26.20;64.60
39859;DHT22;25528;47.810;12.960;2022-07-23T11:25:04;26.20;64.40
39859;DHT22;25528;47.810;12.960;2022-07-23T11:27:45;26.20;64.60
39859;DHT22;25528;47.810;12.960;2022-07-23T11:35:36;26.20;64.10
39859;DHT22;25528;47.810;12.960;2022-07-23T11:38:22;26.20;65.20
39859;DHT22;25528;47.810;12.960;2022-07-23T11:40:53;26.20;65.90
39859;DHT22;25528;47.810;12.960;2022-07-23T11:43:21;26.20;66.40
39859;DHT22;25528;47.810;12.960;2022-07-23T11:45:49;26.20;65.80
39859;DHT22;25528;47.810;12.960;2022-07-23T11:48:24;26.20;65.60
39859;DHT22;25528;47.810;12.960;2022-07-23T11:50:51;26.20;66.90
39859;DHT22;25528;47.810;12.960;2022-07-23T11:55:52;26.20;65.30
39859;DHT22;25528;47.810;12.960;2022-07-23T11:58:18;26.20;65.30
39859;DHT22;25528;47.810;12.960;2022-07-23T12:00:44;26.20;64.90
39859;DHT22;25528;47.810;12.960;2022-07-23T12:03:10;26.20;66.20
39859;DHT22;25528;47.810;12.960;2022-07-23T12:05:37;26.20;65.30
39859;DHT22;25528;47.810;12.960;2022-07-23T12:08:05;26.20;65.70
39859;DHT22;25528;47.810;12.960;2022-07-23T12:13:06;26.20;65.50
39859;DHT22;25528;47.810;12.960;2022-07-23T12:15:35;26.20;66.00
39859;DHT22;25528;47.810;12.960;2022-07-23T12:18:07;26.20;66.60
39859;DHT22;25528;47.810;12.960;2022-07-23T12:20:35;26.20;66.00
39859;DHT22;25528;47.810;12.960;2022-07-23T12:23:04;26.20;66.30
39859;DHT22;25528;47.810;12.960;2022-07-23T12:25:35;26.20;66.50
39859;DHT22;25528;47.810;12.960;2022-07-23T12:28:13;26.20;65.90
39859;DHT22;25528;47.810;12.960;2022-07-23T12:30:42;26.20;66.20
39859;DHT22;25528;47.810;12.960;2022-07-23T12:33:10;26.20;65.60
39859;DHT22;25528;47.810;12.960;2022-07-23T12:35:45;26.30;66.10
39859;DHT22;25528;47.810;12.960;2022-07-23T12:38:13;26.30;65.80
39859;DHT22;25528;47.810;12.960;2022-07-23T12:43:25;26.30;65.90
39859;DHT22;25528;47.810;12.960;2022-07-23T12:46:05;26.30;65.50
39859;DHT22;25528;47.810;12.960;2022-07-23T12:48:33;26.30;67.90
39859;DHT22;25528;47.810;12.960;2022-07-23T12:51:02;26.40;67.30
39859;DHT22;25528;47.810;12.960;2022-07-23T12:53:31;26.30;66.80
39859;DHT22;25528;47.810;12.960;2022-07-23T12:56:19;26.30;66.30
39859;DHT22;25528;47.810;12.960;2022-07-23T12:58:56;26.40;67.40
39859;DHT22;25528;47.810;12.960;2022-07-23T13:04:10;26.40;66.10
39859;DHT22;25528;47.810;12.960;2022-07-23T13:06:42;26.40;65.70
39859;DHT22;25528;47.810;12.960;2022-07-23T13:09:10;26.30;65.50
39859;DHT22;25528;47.810;12.960;2022-07-23T13:11:36;26.30;65.30
39859;DHT22;25528;47.810;12.960;2022-07-23T13:14:02;26.40;65.00
39859;DHT22;25528;47.810;12.960;2022-07-23T13:16:29;26.40;64.20
39859;DHT22;25528;47.810;12.960;2022-07-23T13:18:56;26.30;64.10
39859;DHT22;25528;47.810;12.960;2022-07-23T13:21:25;26.40;63.80
39859;DHT22;25528;47.810;12.960;2022-07-23T13:23:51;26.40;63.20
39859;DHT22;25528;47.810;12.960;2022-07-23T13:26:17;26.30;63.20
39859;DHT22;25528;47.810;12.960;2022-07-23T13:28:43;26.30;62.90
39859;DHT22;25528;47.810;12.960;2022-07-23T13:31:09;26.30;62.70
39859;DHT22;25528;47.810;12.960;2022-07-23T13:33:35;26.30;62.80
39859;DHT22;25528;47.810;12.960;2022-07-23T13:36:00;26.30;63.20
39859;DHT22;25528;47.810;12.960;2022-07-23T13:38:27;26.30;63.40
39859;DHT22;25528;47.810;12.960;2022-07-23T13:40:53;26.30;63.00
39859;DHT22;25528;47.810;12.960;2022-07-23T13:43:21;26.30;63.20
39859;DHT22;25528;47.810;12.960;2022-07-23T13:45:48;26.30;62.40
39859;DHT22;25528;47.810;12.960;2022-07-23T13:48:14;26.30;62.20
39859;DHT22;25528;47.810;12.960;2022-07-23T13:50:41;26.30;62.00
39859;DHT22;25528;47.810;12.960;2022-07-23T13:53:09;26.30;62.20
39859;DHT22;25528;47.810;12.960;2022-07-23T13:55:37;26.30;62.60
39859;DHT22;25528;47.810;12.960;2022-07-23T13:58:04;26.20;62.20
39859;DHT22;25528;47.810;12.960;2022-07-23T14:00:30;26.30;62.30
39859;DHT22;25528;47.810;12.960;2022-07-23T14:02:57;26.30;62.20
39859;DHT22;25528;47.810;12.960;2022-07-23T14:05:23;26.30;62.20
39859;DHT22;25528;47.810;12.960;2022-07-23T14:07:49;26.30;62.30
39859;DHT22;25528;47.810;12.960;2022-07-23T14:10:19;26.20;62.20
39859;DHT22;25528;47.810;12.960;2022-07-23T14:12:46;26.20;62.20
39859;DHT22;25528;47.810;12.960;2022-07-23T14:15:13;26.20;62.20
39859;DHT22;25528;47.810;12.960;2022-07-23T14:17:40;26.20;62.30
39859;DHT22;25528;47.810;12.960;2022-07-23T14:20:07;26.20;62.20
39859;DHT22;25528;47.810;12.960;2022-07-23T14:22:33;26.20;62.20
39859;DHT22;25528;47.810;12.960;2022-07-23T14:24:59;26.20;62.20
39859;DHT22;25528;47.810;12.960;2022-07-23T14:27:26;26.20;62.10
39859;DHT22;25528;47.810;12.960;2022-07-23T14:29:53;26.20;62.20
39859;DHT22;25528;47.810;12.960;2022-07-23T14:32:19;26.20;62.20
39859;DHT22;25528;47.810;12.960;2022-07-23T14:34:45;26.20;62.30
39859;DHT22;25528;47.810;12.960;2022-07-23T14:37:11;26.20;62.20
39859;DHT22;25528;47.810;12.960;2022-07-23T14:39:38;26.20;62.20
39859;DHT22;25528;47.810;12.960;2022-07-23T14:42:04;26.20;62.20
39859;DHT22;25528;47.810;12.960;2022-07-23T14:44:30;26.20;62.00
39859;DHT22;25528;47.810;12.960;2022-07-23T14:46:56;26.20;62.00
39859;DHT22;25528;47.810;12.960;2022-07-23T14:49:21;26.20;62.00
39859;DHT22;25528;47.810;12.960;2022-07-23T14:51:47;26.20;61.80
39859;DHT22;25528;47.810;12.960;2022-07-23T14:54:13;26.30;61.80
39859;DHT22;25528;47.810;12.960;2022-07-23T14:56:40;26.20;61.80
39859;DHT22;25528;47.810;12.960;2022-07-23T14:59:06;26.30;61.90
39859;DHT22;25528;47.810;12.960;2022-07-23T15:01:32;26.30;61.90
39859;DHT22;25528;47.810;12.960;2022-07-23T15:03:58;26.30;61.90
39859;DHT22;25528;47.810;12.960;2022-07-23T15:06:25;26.30;62.10
39859;DHT22;25528;47.810;12.960;2022-07-23T15:08:52;26.30;61.90
39859;DHT22;25528;47.810;12.960;2022-07-23T15:11:17;26.20;61.90
39859;DHT22;25528;47.810;12.960;2022-07-23T15:13:43;26.20;62.00
39859;DHT22;25528;47.810;12.960;2022-07-23T15:16:09;26.20;62.10
39859;DHT22;25528;47.810;12.960;2022-07-23T15:18:35;26.30;62.80
39859;DHT22;25528;47.810;12.960;2022-07-23T15:21:02;26.30;62.40
39859;DHT22;25528;47.810;12.960;2022-07-23T15:23:28;26.30;62.60
39859;DHT22;25528;47.810;12.960;2022-07-23T15:25:57;26.30;62.90
39859;DHT22;25528;47.810;12.960;2022-07-23T15:28:23;26.30;63.20
39859;DHT22;25528;47.810;12.960;2022-07-23T15:30:50;26.30;64.70
39859;DHT22;25528;47.810;12.960;2022-07-23T15:33:16;26.40;65.40
39859;DHT22;25528;47.810;12.960;2022-07-23T15:35:42;26.40;65.40
39859;DHT22;25528;47.810;12.960;2022-07-23T15:38:07;26.40;65.70
39859;DHT22;25528;47.810;12.960;2022-07-23T15:40:33;26.40;67.10
39859;DHT22;25528;47.810;12.960;2022-07-23T15:43:00;26.40;65.90
39859;DHT22;25528;47.810;12.960;2022-07-23T15:45:26;26.40;65.80
39859;DHT22;25528;47.810;12.960;2022-07-23T15:47:52;26.40;66.00
39859;DHT22;25528;47.810;12.960;2022-07-23T15:50:17;26.40;64.70
39859;DHT22;25528;47.810;12.960;2022-07-23T15:52:43;26.40;64.90
39859;DHT22;25528;47.810;12.960;2022-07-23T15:55:09;26.40;64.60
39859;DHT22;25528;47.810;12.960;2022-07-23T15:57:35;26.40;65.50